createdAt,value
2023-04-15T00:00:34.142Z,1.69
2023-04-15T00:10:34.173Z,2.09
2023-04-15T00:20:34.165Z,1.40
2023-04-15T00:30:34.215Z,0.40
2023-04-15T00:40:35.128Z,1.00
2023-04-15T00:50:35.217Z,0.80
2023-04-15T01:00:35.467Z,2.19
2023-04-15T01:10:36.205Z,2.49
2023-04-15T01:20:36.558Z,1.29
2023-04-15T01:30:37.509Z,0.40
2023-04-15T01:40:38.380Z,2.09
2023-04-15T01:50:38.311Z,1.69
2023-04-15T02:00:38.323Z,1.89
2023-04-15T02:10:39.312Z,2.09
2023-04-15T02:20:39.487Z,0.89
2023-04-15T02:30:40.379Z,1.99
2023-04-15T02:40:40.866Z,0.79
2023-04-15T02:50:42.634Z,1.09
2023-04-15T03:00:43.457Z,1.98
2023-04-15T03:10:43.559Z,1.49
2023-04-15T03:20:44.026Z,1.88
2023-04-15T03:30:44.660Z,1.88
2023-04-15T03:40:45.868Z,2.28
2023-04-15T03:50:46.724Z,2.18
2023-04-15T04:00:47.526Z,1.39
2023-04-15T04:10:47.416Z,1.78
2023-04-15T04:20:47.460Z,1.09
2023-04-15T04:30:47.419Z,0.59
2023-04-15T04:40:47.572Z,2.37
2023-04-15T04:50:47.677Z,1.97
2023-04-15T05:00:47.520Z,1.38
2023-04-15T05:10:47.506Z,0.79
2023-04-15T05:20:49.373Z,1.18
2023-04-15T05:30:49.536Z,1.77
2023-04-15T05:40:49.539Z,2.56
2023-04-15T05:50:49.608Z,2.96
2023-04-15T06:00:49.518Z,6.12
2023-04-15T06:10:49.646Z,0.20
2023-04-15T06:20:49.701Z,1.88
2023-04-15T06:30:49.638Z,3.18
2023-04-15T06:40:49.596Z,0.20
2023-04-15T06:50:49.701Z,2.00
2023-04-15T07:00:49.732Z,1.50
2023-04-15T07:10:49.743Z,1.80
2023-04-15T07:20:49.780Z,0.60
2023-04-15T07:30:49.655Z,0.90
2023-04-15T07:40:50.442Z,3.80
2023-04-15T07:50:50.791Z,0.90
2023-04-15T08:00:50.806Z,0.50
2023-04-15T08:10:52.592Z,0.90
2023-04-15T08:20:52.814Z,0.60
2023-04-15T08:30:52.872Z,0.50
2023-04-15T08:40:52.752Z,2.30
2023-04-15T08:50:53.166Z,1.50
2023-04-15T09:00:53.853Z,1.70
2023-04-15T09:10:53.824Z,0.60
2023-04-15T09:20:53.900Z,1.20
2023-04-15T09:30:53.854Z,0.30
2023-04-15T09:40:53.901Z,0.70
2023-04-15T09:50:54.554Z,0.80
2023-04-15T10:00:54.890Z,2.30
2023-04-15T10:10:55.022Z,3.40
2023-04-15T10:20:55.156Z,0.30
2023-04-15T10:30:58.072Z,2.80
2023-04-15T10:40:57.949Z,1.50
2023-04-15T10:50:57.982Z,1.60
2023-04-15T11:00:58.123Z,0.60
2023-04-15T11:10:57.908Z,1.20
2023-04-15T11:20:58.999Z,0.60
2023-04-15T11:30:59.350Z,1.30
2023-04-15T11:41:00.036Z,0.90
2023-04-15T11:51:00.367Z,0.90
2023-04-15T12:01:01.151Z,1.30
2023-04-15T12:11:01.109Z,1.80
2023-04-15T12:21:01.184Z,0.20
2023-04-15T12:31:01.580Z,3.79
2023-04-15T12:41:02.118Z,1.00
2023-04-15T12:51:03.928Z,2.09
2023-04-15T13:01:04.209Z,1.79
2023-04-15T13:11:04.204Z,1.79
2023-04-15T13:21:06.245Z,0.40
2023-04-15T13:31:06.245Z,1.89
2023-04-15T13:41:19.625Z,2.09
2023-04-15T13:51:20.326Z,0.80
2023-04-15T14:01:20.466Z,1.40
2023-04-15T14:11:21.110Z,0.70
2023-04-15T14:21:21.229Z,1.80
2023-04-15T14:31:21.348Z,0.60
2023-04-15T14:41:22.893Z,1.60
2023-04-15T14:51:23.223Z,1.10
2023-04-15T15:01:23.314Z,1.20
2023-04-15T15:11:23.203Z,2.69
2023-04-15T15:21:23.460Z,0.90
2023-04-15T15:31:23.295Z,0.30
2023-04-15T15:41:23.484Z,0.99
2023-04-15T15:51:23.234Z,1.29
2023-04-15T16:01:23.329Z,0.69
2023-04-15T16:11:23.269Z,1.09
2023-04-15T16:21:24.370Z,2.18
2023-04-15T16:31:24.428Z,1.78
2023-04-15T16:41:24.314Z,0.39
2023-04-15T16:51:24.417Z,0.59
2023-04-15T17:01:24.479Z,0.79
2023-04-15T17:11:24.335Z,1.08
2023-04-15T17:21:26.218Z,1.38
2023-04-15T17:31:26.602Z,1.08
2023-04-15T17:41:26.424Z,1.47
2023-04-15T17:51:28.371Z,0.98
2023-04-15T18:01:28.562Z,1.66
2023-04-15T18:11:28.463Z,5.38
2023-04-15T18:21:28.528Z,3.61
2023-04-15T18:31:28.575Z,2.34
2023-04-15T18:41:29.158Z,2.72
2023-04-15T18:51:29.618Z,2.14
2023-04-15T19:01:29.615Z,2.13
2023-04-15T19:11:29.498Z,2.03
2023-04-15T19:21:49.569Z,2.70
2023-04-15T19:31:49.544Z,1.06
2023-04-15T19:41:49.639Z,2.31
2023-04-15T19:51:50.291Z,4.23
2023-04-15T20:01:51.127Z,3.07
2023-04-15T20:12:09.986Z,1.73
2023-04-15T20:21:56.671Z,2.20
2023-04-15T20:31:56.616Z,1.72
2023-04-15T20:42:00.842Z,2.30
2023-04-15T20:52:00.936Z,1.15
2023-04-15T21:02:01.150Z,0.95
2023-04-15T21:12:02.295Z,1.91
2023-04-15T21:22:02.794Z,3.61
2023-04-15T21:32:02.842Z,3.23
2023-04-15T21:42:02.817Z,0.95
2023-04-15T21:52:04.101Z,2.47
2023-04-15T22:02:04.857Z,3.32
2023-04-15T22:12:05.813Z,3.60
2023-04-15T22:22:05.855Z,3.41
2023-04-15T22:32:06.438Z,3.97
2023-04-15T22:42:06.717Z,3.40
2023-04-15T22:52:09.024Z,1.99
2023-04-15T23:02:09.019Z,7.66
2023-04-15T23:12:09.946Z,5.67
2023-04-15T23:22:11.737Z,5.48
2023-04-15T23:32:11.932Z,9.91
2023-04-15T23:42:11.804Z,9.25
2023-04-15T23:52:14.902Z,12.83
